Terminal Aerodrome Forecast
Issued by NWS Tuscon, AZ

Home | Current Version | Previous Version | Text Only | Print | Product List | Glossary On
Versions: 1 2 3 4 5 6 7 8 9 10 11 12 13
659
FTUS45 KTWC 232320
TAFTUS
TAF
KTUS 232320Z 2400/2424 30008KT P6SM BKN250
     FM240700 15007KT P6SM SCT250
     FM241900 26008KT P6SM SCT250=

USA.gov is the U.S. government's official web portal to all federal, state and local government web resources and services.